sensor_id;sensor_type;location;lat;lon;timestamp;P1;durP1;ratioP1;P2;durP2;ratioP2
71490;SDS011;59307;50.060;9.150;2022-12-24T00:01:53;10.00;;;1.70;;
71490;SDS011;59307;50.060;9.150;2022-12-24T00:04:19;8.43;;;1.90;;
71490;SDS011;59307;50.060;9.150;2022-12-24T00:06:44;8.87;;;1.77;;
71490;SDS011;59307;50.060;9.150;2022-12-24T00:09:09;10.07;;;2.10;;
71490;SDS011;59307;50.060;9.150;2022-12-24T00:11:34;10.93;;;2.43;;
71490;SDS011;59307;50.060;9.150;2022-12-24T00:13:59;10.50;;;1.70;;
71490;SDS011;59307;50.060;9.150;2022-12-24T00:16:25;7.60;;;2.20;;
71490;SDS011;59307;50.060;9.150;2022-12-24T00:18:50;10.97;;;2.17;;
71490;SDS011;59307;50.060;9.150;2022-12-24T00:21:15;11.57;;;2.43;;
71490;SDS011;59307;50.060;9.150;2022-12-24T00:23:40;8.60;;;1.93;;
71490;SDS011;59307;50.060;9.150;2022-12-24T00:26:05;10.13;;;2.33;;
71490;SDS011;59307;50.060;9.150;2022-12-24T00:28:31;11.87;;;2.20;;
71490;SDS011;59307;50.060;9.150;2022-12-24T00:30:56;12.27;;;2.20;;
71490;SDS011;59307;50.060;9.150;2022-12-24T00:33:21;9.87;;;1.60;;
71490;SDS011;59307;50.060;9.150;2022-12-24T00:35:48;10.13;;;1.87;;
71490;SDS011;59307;50.060;9.150;2022-12-24T00:38:13;7.95;;;1.90;;
71490;SDS011;59307;50.060;9.150;2022-12-24T00:40:39;11.80;;;1.87;;
71490;SDS011;59307;50.060;9.150;2022-12-24T00:43:04;9.67;;;1.87;;
71490;SDS011;59307;50.060;9.150;2022-12-24T00:45:29;11.13;;;2.37;;
71490;SDS011;59307;50.060;9.150;2022-12-24T00:47:54;12.33;;;2.43;;
71490;SDS011;59307;50.060;9.150;2022-12-24T00:50:19;14.93;;;2.43;;
71490;SDS011;59307;50.060;9.150;2022-12-24T00:52:45;10.80;;;2.00;;
71490;SDS011;59307;50.060;9.150;2022-12-24T00:55:10;8.83;;;1.70;;
71490;SDS011;59307;50.060;9.150;2022-12-24T00:57:35;11.17;;;2.13;;
71490;SDS011;59307;50.060;9.150;2022-12-24T01:00:00;16.80;;;2.63;;
71490;SDS011;59307;50.060;9.150;2022-12-24T01:02:25;7.40;;;1.57;;
71490;SDS011;59307;50.060;9.150;2022-12-24T01:04:50;9.33;;;1.50;;
71490;SDS011;59307;50.060;9.150;2022-12-24T01:07:34;10.38;;;1.83;;
71490;SDS011;59307;50.060;9.150;2022-12-24T01:10:00;18.53;;;3.07;;
71490;SDS011;59307;50.060;9.150;2022-12-24T01:12:25;7.07;;;2.10;;
71490;SDS011;59307;50.060;9.150;2022-12-24T01:14:50;8.73;;;2.00;;
71490;SDS011;59307;50.060;9.150;2022-12-24T01:17:15;12.67;;;1.93;;
71490;SDS011;59307;50.060;9.150;2022-12-24T01:19:40;10.23;;;1.63;;
71490;SDS011;59307;50.060;9.150;2022-12-24T01:22:06;13.37;;;2.23;;
71490;SDS011;59307;50.060;9.150;2022-12-24T01:24:31;10.77;;;1.60;;
71490;SDS011;59307;50.060;9.150;2022-12-24T01:26:56;7.77;;;1.50;;
71490;SDS011;59307;50.060;9.150;2022-12-24T01:29:21;11.30;;;2.17;;
71490;SDS011;59307;50.060;9.150;2022-12-24T01:31:46;9.00;;;2.03;;
71490;SDS011;59307;50.060;9.150;2022-12-24T01:34:12;8.47;;;1.50;;
71490;SDS011;59307;50.060;9.150;2022-12-24T01:36:37;9.10;;;1.47;;
71490;SDS011;59307;50.060;9.150;2022-12-24T01:39:02;9.87;;;1.70;;
71490;SDS011;59307;50.060;9.150;2022-12-24T01:41:28;10.33;;;1.67;;
71490;SDS011;59307;50.060;9.150;2022-12-24T01:46:41;9.27;;;1.92;;
71490;SDS011;59307;50.060;9.150;2022-12-24T01:49:07;8.07;;;1.60;;
71490;SDS011;59307;50.060;9.150;2022-12-24T01:51:36;10.52;;;1.70;;
71490;SDS011;59307;50.060;9.150;2022-12-24T01:54:04;4.63;;;1.15;;
71490;SDS011;59307;50.060;9.150;2022-12-24T01:56:31;11.87;;;1.80;;
71490;SDS011;59307;50.060;9.150;2022-12-24T01:59:02;7.68;;;1.67;;
71490;SDS011;59307;50.060;9.150;2022-12-24T02:01:28;9.68;;;1.50;;
71490;SDS011;59307;50.060;9.150;2022-12-24T02:03:53;9.67;;;1.70;;
71490;SDS011;59307;50.060;9.150;2022-12-24T02:06:18;12.73;;;1.73;;
71490;SDS011;59307;50.060;9.150;2022-12-24T02:08:44;12.75;;;1.80;;
71490;SDS011;59307;50.060;9.150;2022-12-24T02:11:14;10.93;;;1.57;;
71490;SDS011;59307;50.060;9.150;2022-12-24T02:13:40;7.60;;;1.30;;
71490;SDS011;59307;50.060;9.150;2022-12-24T02:18:50;13.33;;;2.10;;
71490;SDS011;59307;50.060;9.150;2022-12-24T02:21:32;7.03;;;1.52;;
71490;SDS011;59307;50.060;9.150;2022-12-24T02:32:10;9.37;;;2.17;;
71490;SDS011;59307;50.060;9.150;2022-12-24T02:34:37;8.65;;;1.42;;
71490;SDS011;59307;50.060;9.150;2022-12-24T02:37:06;11.80;;;1.80;;
71490;SDS011;59307;50.060;9.150;2022-12-24T02:39:53;10.25;;;1.80;;
71490;SDS011;59307;50.060;9.150;2022-12-24T02:42:21;10.30;;;1.98;;
71490;SDS011;59307;50.060;9.150;2022-12-24T02:47:13;12.50;;;2.30;;
71490;SDS011;59307;50.060;9.150;2022-12-24T02:49:41;8.63;;;1.63;;
71490;SDS011;59307;50.060;9.150;2022-12-24T02:52:25;10.90;;;1.90;;
71490;SDS011;59307;50.060;9.150;2022-12-24T02:54:51;10.27;;;1.80;;
71490;SDS011;59307;50.060;9.150;2022-12-24T02:57:23;8.70;;;1.80;;
71490;SDS011;59307;50.060;9.150;2022-12-24T02:59:58;14.20;;;2.17;;
71490;SDS011;59307;50.060;9.150;2022-12-24T03:05:03;9.53;;;1.80;;
71490;SDS011;59307;50.060;9.150;2022-12-24T03:07:34;11.00;;;1.88;;
71490;SDS011;59307;50.060;9.150;2022-12-24T03:10:15;14.48;;;1.70;;
71490;SDS011;59307;50.060;9.150;2022-12-24T03:13:02;8.80;;;1.80;;
71490;SDS011;59307;50.060;9.150;2022-12-24T03:15:28;13.70;;;1.95;;
71490;SDS011;59307;50.060;9.150;2022-12-24T03:17:56;16.20;;;2.33;;
71490;SDS011;59307;50.060;9.150;2022-12-24T03:20:24;15.27;;;2.20;;
71490;SDS011;59307;50.060;9.150;2022-12-24T03:22:50;9.27;;;1.70;;
71490;SDS011;59307;50.060;9.150;2022-12-24T03:25:16;9.80;;;1.87;;
71490;SDS011;59307;50.060;9.150;2022-12-24T03:27:41;14.13;;;2.47;;
71490;SDS011;59307;50.060;9.150;2022-12-24T03:30:09;11.85;;;2.05;;
71490;SDS011;59307;50.060;9.150;2022-12-24T03:32:34;7.85;;;1.48;;
71490;SDS011;59307;50.060;9.150;2022-12-24T03:35:00;12.87;;;2.00;;
71490;SDS011;59307;50.060;9.150;2022-12-24T03:37:25;13.10;;;1.80;;
71490;SDS011;59307;50.060;9.150;2022-12-24T03:39:51;9.98;;;1.80;;
71490;SDS011;59307;50.060;9.150;2022-12-24T03:42:16;13.97;;;2.30;;
71490;SDS011;59307;50.060;9.150;2022-12-24T03:44:41;12.70;;;1.77;;
71490;SDS011;59307;50.060;9.150;2022-12-24T03:47:06;8.00;;;1.53;;
71490;SDS011;59307;50.060;9.150;2022-12-24T03:49:31;13.20;;;2.10;;
71490;SDS011;59307;50.060;9.150;2022-12-24T03:51:57;10.03;;;1.63;;
71490;SDS011;59307;50.060;9.150;2022-12-24T03:54:22;10.20;;;1.50;;
71490;SDS011;59307;50.060;9.150;2022-12-24T03:56:47;10.43;;;1.60;;
71490;SDS011;59307;50.060;9.150;2022-12-24T03:59:12;13.63;;;2.03;;
71490;SDS011;59307;50.060;9.150;2022-12-24T04:01:37;15.10;;;2.20;;
71490;SDS011;59307;50.060;9.150;2022-12-24T04:04:02;10.40;;;2.43;;
71490;SDS011;59307;50.060;9.150;2022-12-24T04:06:28;13.60;;;1.80;;
71490;SDS011;59307;50.060;9.150;2022-12-24T04:08:53;12.03;;;1.80;;
71490;SDS011;59307;50.060;9.150;2022-12-24T04:11:18;19.80;;;2.03;;
71490;SDS011;59307;50.060;9.150;2022-12-24T04:13:43;8.43;;;1.47;;
71490;SDS011;59307;50.060;9.150;2022-12-24T04:16:10;7.83;;;1.70;;
71490;SDS011;59307;50.060;9.150;2022-12-24T04:18:35;13.90;;;1.80;;
71490;SDS011;59307;50.060;9.150;2022-12-24T04:21:01;12.07;;;2.00;;
71490;SDS011;59307;50.060;9.150;2022-12-24T04:23:29;8.40;;;1.70;;
71490;SDS011;59307;50.060;9.150;2022-12-24T04:25:54;9.57;;;1.40;;
71490;SDS011;59307;50.060;9.150;2022-12-24T04:28:19;10.10;;;1.43;;
71490;SDS011;59307;50.060;9.150;2022-12-24T04:30:44;12.63;;;2.30;;
71490;SDS011;59307;50.060;9.150;2022-12-24T04:33:09;9.27;;;1.80;;
71490;SDS011;59307;50.060;9.150;2022-12-24T04:35:38;9.13;;;1.67;;
71490;SDS011;59307;50.060;9.150;2022-12-24T04:38:04;12.68;;;1.60;;
71490;SDS011;59307;50.060;9.150;2022-12-24T04:40:29;12.00;;;2.00;;
71490;SDS011;59307;50.060;9.150;2022-12-24T04:42:54;12.40;;;1.77;;
71490;SDS011;59307;50.060;9.150;2022-12-24T04:45:19;6.87;;;1.90;;
71490;SDS011;59307;50.060;9.150;2022-12-24T04:47:44;10.27;;;2.00;;
71490;SDS011;59307;50.060;9.150;2022-12-24T04:50:10;12.50;;;2.23;;
71490;SDS011;59307;50.060;9.150;2022-12-24T04:52:35;12.77;;;1.73;;
71490;SDS011;59307;50.060;9.150;2022-12-24T04:55:00;16.20;;;2.13;;
71490;SDS011;59307;50.060;9.150;2022-12-24T04:57:26;10.23;;;2.05;;
71490;SDS011;59307;50.060;9.150;2022-12-24T04:59:51;14.10;;;1.73;;
71490;SDS011;59307;50.060;9.150;2022-12-24T05:02:16;14.43;;;1.83;;
71490;SDS011;59307;50.060;9.150;2022-12-24T05:04:41;14.33;;;2.00;;
71490;SDS011;59307;50.060;9.150;2022-12-24T05:07:07;10.90;;;2.50;;
71490;SDS011;59307;50.060;9.150;2022-12-24T05:09:32;7.93;;;1.53;;
71490;SDS011;59307;50.060;9.150;2022-12-24T05:11:57;11.93;;;2.20;;
71490;SDS011;59307;50.060;9.150;2022-12-24T05:14:22;11.03;;;1.73;;
71490;SDS011;59307;50.060;9.150;2022-12-24T05:16:47;15.73;;;2.30;;
71490;SDS011;59307;50.060;9.150;2022-12-24T05:19:13;10.63;;;2.03;;
71490;SDS011;59307;50.060;9.150;2022-12-24T05:21:38;14.20;;;2.10;;
71490;SDS011;59307;50.060;9.150;2022-12-24T05:24:03;11.50;;;1.80;;
71490;SDS011;59307;50.060;9.150;2022-12-24T05:26:48;10.40;;;1.83;;
71490;SDS011;59307;50.060;9.150;2022-12-24T05:29:14;16.63;;;1.90;;
71490;SDS011;59307;50.060;9.150;2022-12-24T05:31:39;13.25;;;2.00;;
71490;SDS011;59307;50.060;9.150;2022-12-24T05:34:05;10.10;;;1.83;;
71490;SDS011;59307;50.060;9.150;2022-12-24T05:36:31;12.13;;;2.15;;
71490;SDS011;59307;50.060;9.150;2022-12-24T05:38:56;14.93;;;2.00;;
71490;SDS011;59307;50.060;9.150;2022-12-24T05:41:22;15.67;;;2.63;;
71490;SDS011;59307;50.060;9.150;2022-12-24T05:43:47;8.33;;;1.70;;
71490;SDS011;59307;50.060;9.150;2022-12-24T05:46:13;10.33;;;1.60;;
71490;SDS011;59307;50.060;9.150;2022-12-24T05:48:39;13.50;;;1.83;;
71490;SDS011;59307;50.060;9.150;2022-12-24T05:51:05;10.33;;;1.50;;
71490;SDS011;59307;50.060;9.150;2022-12-24T05:53:31;10.55;;;1.63;;
71490;SDS011;59307;50.060;9.150;2022-12-24T05:56:06;12.32;;;1.95;;
71490;SDS011;59307;50.060;9.150;2022-12-24T05:58:31;12.57;;;2.03;;
71490;SDS011;59307;50.060;9.150;2022-12-24T06:00:57;14.03;;;2.87;;
71490;SDS011;59307;50.060;9.150;2022-12-24T06:03:22;12.90;;;1.83;;
71490;SDS011;59307;50.060;9.150;2022-12-24T06:05:47;11.37;;;2.20;;
71490;SDS011;59307;50.060;9.150;2022-12-24T06:08:12;10.97;;;1.83;;
71490;SDS011;59307;50.060;9.150;2022-12-24T06:10:37;7.70;;;1.77;;
71490;SDS011;59307;50.060;9.150;2022-12-24T06:13:02;11.27;;;1.73;;
71490;SDS011;59307;50.060;9.150;2022-12-24T06:15:28;18.07;;;2.50;;
71490;SDS011;59307;50.060;9.150;2022-12-24T06:17:53;17.33;;;3.20;;
71490;SDS011;59307;50.060;9.150;2022-12-24T06:20:18;13.47;;;2.43;;
71490;SDS011;59307;50.060;9.150;2022-12-24T06:22:43;12.57;;;2.33;;
71490;SDS011;59307;50.060;9.150;2022-12-24T06:25:08;11.37;;;2.17;;
71490;SDS011;59307;50.060;9.150;2022-12-24T06:27:34;16.27;;;2.27;;
71490;SDS011;59307;50.060;9.150;2022-12-24T06:29:59;10.40;;;1.80;;
71490;SDS011;59307;50.060;9.150;2022-12-24T06:32:24;11.10;;;1.83;;
71490;SDS011;59307;50.060;9.150;2022-12-24T06:34:49;8.10;;;2.13;;
71490;SDS011;59307;50.060;9.150;2022-12-24T06:37:14;9.57;;;2.07;;
71490;SDS011;59307;50.060;9.150;2022-12-24T06:39:43;14.43;;;2.10;;
71490;SDS011;59307;50.060;9.150;2022-12-24T06:42:08;15.60;;;2.88;;
71490;SDS011;59307;50.060;9.150;2022-12-24T06:44:33;13.40;;;2.67;;
71490;SDS011;59307;50.060;9.150;2022-12-24T06:46:59;9.67;;;2.40;;
71490;SDS011;59307;50.060;9.150;2022-12-24T06:49:24;16.13;;;2.40;;
71490;SDS011;59307;50.060;9.150;2022-12-24T06:51:49;14.27;;;2.50;;
71490;SDS011;59307;50.060;9.150;2022-12-24T06:54:14;14.57;;;2.47;;
71490;SDS011;59307;50.060;9.150;2022-12-24T06:56:39;8.90;;;2.60;;
71490;SDS011;59307;50.060;9.150;2022-12-24T06:59:04;18.13;;;3.20;;
71490;SDS011;59307;50.060;9.150;2022-12-24T07:01:30;12.40;;;2.60;;
71490;SDS011;59307;50.060;9.150;2022-12-24T07:03:55;11.23;;;2.57;;
71490;SDS011;59307;50.060;9.150;2022-12-24T07:06:23;19.60;;;3.00;;
71490;SDS011;59307;50.060;9.150;2022-12-24T07:08:48;13.17;;;2.53;;
71490;SDS011;59307;50.060;9.150;2022-12-24T07:11:13;14.23;;;2.30;;
71490;SDS011;59307;50.060;9.150;2022-12-24T07:13:38;15.87;;;2.40;;
71490;SDS011;59307;50.060;9.150;2022-12-24T07:16:04;16.40;;;2.30;;
71490;SDS011;59307;50.060;9.150;2022-12-24T07:18:29;17.65;;;3.35;;
71490;SDS011;59307;50.060;9.150;2022-12-24T07:20:54;17.73;;;2.87;;
71490;SDS011;59307;50.060;9.150;2022-12-24T07:23:20;15.23;;;2.70;;
71490;SDS011;59307;50.060;9.150;2022-12-24T07:25:45;16.60;;;2.53;;
71490;SDS011;59307;50.060;9.150;2022-12-24T07:28:10;20.80;;;3.17;;
71490;SDS011;59307;50.060;9.150;2022-12-24T07:30:35;19.17;;;2.97;;
71490;SDS011;59307;50.060;9.150;2022-12-24T07:33:01;12.30;;;2.40;;
71490;SDS011;59307;50.060;9.150;2022-12-24T07:35:26;19.83;;;3.07;;
71490;SDS011;59307;50.060;9.150;2022-12-24T07:37:51;14.33;;;3.03;;
71490;SDS011;59307;50.060;9.150;2022-12-24T07:40:16;17.47;;;2.57;;
71490;SDS011;59307;50.060;9.150;2022-12-24T07:42:41;16.47;;;2.77;;
71490;SDS011;59307;50.060;9.150;2022-12-24T07:45:07;15.13;;;2.80;;
71490;SDS011;59307;50.060;9.150;2022-12-24T07:47:33;14.00;;;2.70;;
71490;SDS011;59307;50.060;9.150;2022-12-24T07:49:58;17.90;;;2.70;;
71490;SDS011;59307;50.060;9.150;2022-12-24T07:52:23;14.83;;;3.50;;
71490;SDS011;59307;50.060;9.150;2022-12-24T07:54:48;17.33;;;3.13;;
71490;SDS011;59307;50.060;9.150;2022-12-24T07:57:13;15.43;;;3.17;;
71490;SDS011;59307;50.060;9.150;2022-12-24T07:59:39;19.92;;;3.55;;
71490;SDS011;59307;50.060;9.150;2022-12-24T08:02:04;18.60;;;3.03;;
71490;SDS011;59307;50.060;9.150;2022-12-24T08:04:30;16.73;;;3.17;;
71490;SDS011;59307;50.060;9.150;2022-12-24T08:06:56;19.53;;;2.83;;
71490;SDS011;59307;50.060;9.150;2022-12-24T08:09:21;15.90;;;2.60;;
71490;SDS011;59307;50.060;9.150;2022-12-24T08:11:46;13.43;;;2.73;;
71490;SDS011;59307;50.060;9.150;2022-12-24T08:14:11;17.70;;;3.30;;
71490;SDS011;59307;50.060;9.150;2022-12-24T08:16:37;13.37;;;2.80;;
71490;SDS011;59307;50.060;9.150;2022-12-24T08:19:02;19.40;;;4.40;;
71490;SDS011;59307;50.060;9.150;2022-12-24T08:21:27;19.83;;;3.10;;
71490;SDS011;59307;50.060;9.150;2022-12-24T08:23:52;21.43;;;2.90;;
71490;SDS011;59307;50.060;9.150;2022-12-24T08:26:17;23.50;;;3.60;;
71490;SDS011;59307;50.060;9.150;2022-12-24T08:28:43;17.97;;;3.57;;
71490;SDS011;59307;50.060;9.150;2022-12-24T08:31:08;16.27;;;3.38;;
71490;SDS011;59307;50.060;9.150;2022-12-24T08:33:33;18.70;;;3.60;;
71490;SDS011;59307;50.060;9.150;2022-12-24T08:35:59;22.80;;;4.37;;
71490;SDS011;59307;50.060;9.150;2022-12-24T08:38:24;19.30;;;5.43;;
71490;SDS011;59307;50.060;9.150;2022-12-24T08:40:51;23.07;;;2.87;;
71490;SDS011;59307;50.060;9.150;2022-12-24T08:43:17;17.77;;;3.50;;
71490;SDS011;59307;50.060;9.150;2022-12-24T08:45:42;17.83;;;3.33;;
71490;SDS011;59307;50.060;9.150;2022-12-24T08:48:08;21.13;;;3.87;;
71490;SDS011;59307;50.060;9.150;2022-12-24T08:50:33;22.23;;;3.33;;
71490;SDS011;59307;50.060;9.150;2022-12-24T08:52:59;18.45;;;3.42;;
71490;SDS011;59307;50.060;9.150;2022-12-24T08:55:24;18.07;;;2.83;;
71490;SDS011;59307;50.060;9.150;2022-12-24T08:57:49;17.67;;;3.20;;
71490;SDS011;59307;50.060;9.150;2022-12-24T09:00:14;18.53;;;3.27;;
71490;SDS011;59307;50.060;9.150;2022-12-24T09:02:40;20.87;;;2.73;;
71490;SDS011;59307;50.060;9.150;2022-12-24T09:05:05;20.10;;;3.33;;
71490;SDS011;59307;50.060;9.150;2022-12-24T09:07:30;19.83;;;3.45;;
71490;SDS011;59307;50.060;9.150;2022-12-24T09:09:55;24.13;;;4.10;;
71490;SDS011;59307;50.060;9.150;2022-12-24T09:12:21;19.33;;;3.60;;
71490;SDS011;59307;50.060;9.150;2022-12-24T09:14:46;21.90;;;4.10;;
71490;SDS011;59307;50.060;9.150;2022-12-24T09:17:11;22.33;;;3.40;;
71490;SDS011;59307;50.060;9.150;2022-12-24T09:19:36;19.10;;;4.37;;
71490;SDS011;59307;50.060;9.150;2022-12-24T09:22:01;20.63;;;3.10;;
71490;SDS011;59307;50.060;9.150;2022-12-24T09:24:27;14.57;;;3.63;;
71490;SDS011;59307;50.060;9.150;2022-12-24T09:26:52;20.53;;;4.17;;
71490;SDS011;59307;50.060;9.150;2022-12-24T09:29:17;23.40;;;4.00;;
71490;SDS011;59307;50.060;9.150;2022-12-24T09:31:42;21.57;;;3.30;;
71490;SDS011;59307;50.060;9.150;2022-12-24T09:34:08;15.97;;;3.47;;
71490;SDS011;59307;50.060;9.150;2022-12-24T09:36:33;22.23;;;3.67;;
71490;SDS011;59307;50.060;9.150;2022-12-24T09:38:59;27.75;;;4.55;;
71490;SDS011;59307;50.060;9.150;2022-12-24T09:41:28;21.77;;;4.17;;
71490;SDS011;59307;50.060;9.150;2022-12-24T09:44:01;21.35;;;3.03;;
71490;SDS011;59307;50.060;9.150;2022-12-24T09:46:35;22.00;;;3.40;;
71490;SDS011;59307;50.060;9.150;2022-12-24T09:49:02;21.60;;;3.28;;
71490;SDS011;59307;50.060;9.150;2022-12-24T09:51:30;25.33;;;3.67;;
71490;SDS011;59307;50.060;9.150;2022-12-24T09:56:27;19.48;;;4.28;;
71490;SDS011;59307;50.060;9.150;2022-12-24T09:59:00;22.30;;;3.87;;
71490;SDS011;59307;50.060;9.150;2022-12-24T10:01:28;22.40;;;4.25;;
71490;SDS011;59307;50.060;9.150;2022-12-24T10:03:53;21.15;;;3.38;;
71490;SDS011;59307;50.060;9.150;2022-12-24T10:06:19;22.83;;;3.00;;
71490;SDS011;59307;50.060;9.150;2022-12-24T10:08:57;24.15;;;3.95;;
71490;SDS011;59307;50.060;9.150;2022-12-24T10:14:00;26.87;;;4.07;;
71490;SDS011;59307;50.060;9.150;2022-12-24T10:19:02;20.65;;;3.35;;
71490;SDS011;59307;50.060;9.150;2022-12-24T10:24:23;18.67;;;3.53;;
71490;SDS011;59307;50.060;9.150;2022-12-24T10:27:04;19.20;;;3.10;;
71490;SDS011;59307;50.060;9.150;2022-12-24T10:29:31;26.90;;;4.15;;
71490;SDS011;59307;50.060;9.150;2022-12-24T10:34:30;26.13;;;3.47;;
71490;SDS011;59307;50.060;9.150;2022-12-24T10:36:57;23.10;;;3.78;;
71490;SDS011;59307;50.060;9.150;2022-12-24T10:39:23;20.40;;;3.67;;
71490;SDS011;59307;50.060;9.150;2022-12-24T10:41:50;23.60;;;3.70;;
71490;SDS011;59307;50.060;9.150;2022-12-24T10:44:16;38.22;;;4.10;;
71490;SDS011;59307;50.060;9.150;2022-12-24T10:46:42;19.80;;;3.47;;
71490;SDS011;59307;50.060;9.150;2022-12-24T10:51:53;26.95;;;3.63;;
71490;SDS011;59307;50.060;9.150;2022-12-24T10:54:21;22.30;;;3.15;;
71490;SDS011;59307;50.060;9.150;2022-12-24T10:56:47;23.70;;;3.88;;
71490;SDS011;59307;50.060;9.150;2022-12-24T10:59:48;33.10;;;3.80;;
71490;SDS011;59307;50.060;9.150;2022-12-24T11:02:23;27.00;;;2.78;;
71490;SDS011;59307;50.060;9.150;2022-12-24T11:04:49;28.98;;;4.72;;
71490;SDS011;59307;50.060;9.150;2022-12-24T11:07:17;23.27;;;3.43;;
71490;SDS011;59307;50.060;9.150;2022-12-24T11:09:43;22.43;;;3.30;;
71490;SDS011;59307;50.060;9.150;2022-12-24T11:12:21;20.05;;;3.65;;
71490;SDS011;59307;50.060;9.150;2022-12-24T11:14:46;29.20;;;3.75;;
71490;SDS011;59307;50.060;9.150;2022-12-24T11:17:18;26.97;;;7.33;;
71490;SDS011;59307;50.060;9.150;2022-12-24T11:19:46;22.85;;;5.43;;
71490;SDS011;59307;50.060;9.150;2022-12-24T11:22:20;16.85;;;3.10;;
71490;SDS011;59307;50.060;9.150;2022-12-24T11:24:46;21.10;;;3.20;;
71490;SDS011;59307;50.060;9.150;2022-12-24T11:27:23;20.48;;;4.63;;
71490;SDS011;59307;50.060;9.150;2022-12-24T11:29:50;25.83;;;3.93;;
71490;SDS011;59307;50.060;9.150;2022-12-24T11:32:17;23.20;;;3.23;;
71490;SDS011;59307;50.060;9.150;2022-12-24T11:34:43;22.63;;;3.03;;
71490;SDS011;59307;50.060;9.150;2022-12-24T11:37:09;20.10;;;3.67;;
71490;SDS011;59307;50.060;9.150;2022-12-24T11:39:39;21.60;;;3.90;;
71490;SDS011;59307;50.060;9.150;2022-12-24T11:42:05;20.10;;;2.88;;
71490;SDS011;59307;50.060;9.150;2022-12-24T11:44:30;19.07;;;2.93;;
71490;SDS011;59307;50.060;9.150;2022-12-24T11:46:56;19.20;;;3.17;;
71490;SDS011;59307;50.060;9.150;2022-12-24T11:49:22;16.17;;;2.53;;
71490;SDS011;59307;50.060;9.150;2022-12-24T11:54:32;22.88;;;3.08;;
71490;SDS011;59307;50.060;9.150;2022-12-24T11:57:01;17.23;;;3.55;;
71490;SDS011;59307;50.060;9.150;2022-12-24T12:02:09;22.70;;;2.80;;
71490;SDS011;59307;50.060;9.150;2022-12-24T12:04:36;16.88;;;2.80;;
71490;SDS011;59307;50.060;9.150;2022-12-24T12:07:09;21.00;;;3.00;;
71490;SDS011;59307;50.060;9.150;2022-12-24T12:09:41;17.60;;;2.90;;
71490;SDS011;59307;50.060;9.150;2022-12-24T12:12:14;15.65;;;2.88;;
71490;SDS011;59307;50.060;9.150;2022-12-24T12:14:47;13.17;;;2.57;;
71490;SDS011;59307;50.060;9.150;2022-12-24T12:17:33;22.50;;;2.60;;
71490;SDS011;59307;50.060;9.150;2022-12-24T12:20:09;16.67;;;2.88;;
71490;SDS011;59307;50.060;9.150;2022-12-24T12:22:42;18.77;;;3.60;;
71490;SDS011;59307;50.060;9.150;2022-12-24T12:25:16;15.65;;;2.95;;
71490;SDS011;59307;50.060;9.150;2022-12-24T12:27:43;22.50;;;2.67;;
71490;SDS011;59307;50.060;9.150;2022-12-24T12:30:14;14.57;;;3.22;;
71490;SDS011;59307;50.060;9.150;2022-12-24T12:32:41;20.48;;;3.40;;
71490;SDS011;59307;50.060;9.150;2022-12-24T12:37:40;21.85;;;3.53;;
71490;SDS011;59307;50.060;9.150;2022-12-24T12:40:13;21.40;;;3.30;;
71490;SDS011;59307;50.060;9.150;2022-12-24T12:42:39;20.23;;;3.45;;
71490;SDS011;59307;50.060;9.150;2022-12-24T12:47:54;18.10;;;3.38;;
71490;SDS011;59307;50.060;9.150;2022-12-24T12:50:24;22.98;;;3.75;;
71490;SDS011;59307;50.060;9.150;2022-12-24T12:53:10;22.70;;;4.13;;
71490;SDS011;59307;50.060;9.150;2022-12-24T12:55:43;20.67;;;3.37;;
71490;SDS011;59307;50.060;9.150;2022-12-24T12:58:17;18.92;;;3.45;;
71490;SDS011;59307;50.060;9.150;2022-12-24T13:00:44;20.02;;;3.38;;
71490;SDS011;59307;50.060;9.150;2022-12-24T13:10:51;19.03;;;3.23;;
71490;SDS011;59307;50.060;9.150;2022-12-24T13:18:38;19.90;;;3.88;;
71490;SDS011;59307;50.060;9.150;2022-12-24T13:21:17;17.83;;;3.47;;
71490;SDS011;59307;50.060;9.150;2022-12-24T13:23:42;29.57;;;3.40;;
71490;SDS011;59307;50.060;9.150;2022-12-24T13:26:11;19.73;;;3.70;;
71490;SDS011;59307;50.060;9.150;2022-12-24T13:28:37;22.45;;;3.50;;
71490;SDS011;59307;50.060;9.150;2022-12-24T13:36:09;20.33;;;3.33;;
71490;SDS011;59307;50.060;9.150;2022-12-24T13:44:00;22.10;;;3.13;;
71490;SDS011;59307;50.060;9.150;2022-12-24T13:46:45;20.98;;;4.07;;
71490;SDS011;59307;50.060;9.150;2022-12-24T13:49:11;20.97;;;4.17;;
71490;SDS011;59307;50.060;9.150;2022-12-24T13:51:36;19.67;;;3.33;;
71490;SDS011;59307;50.060;9.150;2022-12-24T13:54:01;17.87;;;3.53;;
71490;SDS011;59307;50.060;9.150;2022-12-24T13:56:27;19.60;;;3.70;;
71490;SDS011;59307;50.060;9.150;2022-12-24T13:58:55;16.23;;;3.20;;
71490;SDS011;59307;50.060;9.150;2022-12-24T14:01:33;12.32;;;2.83;;
71490;SDS011;59307;50.060;9.150;2022-12-24T14:03:59;10.75;;;2.47;;
71490;SDS011;59307;50.060;9.150;2022-12-24T14:06:26;17.88;;;3.13;;
71490;SDS011;59307;50.060;9.150;2022-12-24T14:08:53;11.37;;;2.30;;
71490;SDS011;59307;50.060;9.150;2022-12-24T14:11:20;17.27;;;3.15;;
71490;SDS011;59307;50.060;9.150;2022-12-24T14:18:37;19.30;;;2.87;;
71490;SDS011;59307;50.060;9.150;2022-12-24T14:21:03;15.27;;;2.70;;
71490;SDS011;59307;50.060;9.150;2022-12-24T14:23:40;18.33;;;3.20;;
71490;SDS011;59307;50.060;9.150;2022-12-24T14:26:08;25.15;;;3.42;;
71490;SDS011;59307;50.060;9.150;2022-12-24T14:28:38;18.50;;;3.17;;
71490;SDS011;59307;50.060;9.150;2022-12-24T14:31:04;15.95;;;2.40;;
71490;SDS011;59307;50.060;9.150;2022-12-24T14:33:30;18.57;;;2.83;;
71490;SDS011;59307;50.060;9.150;2022-12-24T14:35:56;19.63;;;2.63;;
71490;SDS011;59307;50.060;9.150;2022-12-24T14:38:21;12.87;;;2.93;;
71490;SDS011;59307;50.060;9.150;2022-12-24T14:41:07;18.83;;;2.80;;
71490;SDS011;59307;50.060;9.150;2022-12-24T14:43:44;11.07;;;2.63;;
71490;SDS011;59307;50.060;9.150;2022-12-24T14:48:56;20.13;;;2.95;;
71490;SDS011;59307;50.060;9.150;2022-12-24T14:51:43;15.93;;;2.80;;
71490;SDS011;59307;50.060;9.150;2022-12-24T14:54:23;17.58;;;2.83;;
71490;SDS011;59307;50.060;9.150;2022-12-24T14:59:46;14.52;;;2.92;;
71490;SDS011;59307;50.060;9.150;2022-12-24T15:02:22;15.57;;;3.42;;
71490;SDS011;59307;50.060;9.150;2022-12-24T15:05:01;19.90;;;3.23;;
71490;SDS011;59307;50.060;9.150;2022-12-24T15:07:26;16.45;;;3.00;;
71490;SDS011;59307;50.060;9.150;2022-12-24T15:09:51;17.90;;;3.63;;
71490;SDS011;59307;50.060;9.150;2022-12-24T15:12:18;19.55;;;4.25;;
71490;SDS011;59307;50.060;9.150;2022-12-24T15:14:45;18.58;;;3.70;;
71490;SDS011;59307;50.060;9.150;2022-12-24T15:17:10;16.00;;;2.80;;
71490;SDS011;59307;50.060;9.150;2022-12-24T15:19:36;19.20;;;3.47;;
71490;SDS011;59307;50.060;9.150;2022-12-24T15:22:03;12.73;;;3.17;;
71490;SDS011;59307;50.060;9.150;2022-12-24T15:24:35;19.17;;;3.72;;
71490;SDS011;59307;50.060;9.150;2022-12-24T15:27:02;21.45;;;3.75;;
71490;SDS011;59307;50.060;9.150;2022-12-24T15:29:30;20.13;;;3.77;;
71490;SDS011;59307;50.060;9.150;2022-12-24T15:31:59;18.42;;;4.35;;
71490;SDS011;59307;50.060;9.150;2022-12-24T15:34:26;21.48;;;3.92;;
71490;SDS011;59307;50.060;9.150;2022-12-24T15:36:51;22.58;;;4.47;;
71490;SDS011;59307;50.060;9.150;2022-12-24T15:39:16;19.03;;;4.77;;
71490;SDS011;59307;50.060;9.150;2022-12-24T15:41:42;24.60;;;4.50;;
71490;SDS011;59307;50.060;9.150;2022-12-24T15:44:27;18.08;;;5.07;;
71490;SDS011;59307;50.060;9.150;2022-12-24T15:46:57;23.23;;;3.65;;
71490;SDS011;59307;50.060;9.150;2022-12-24T15:49:22;22.83;;;4.20;;
71490;SDS011;59307;50.060;9.150;2022-12-24T15:51:47;13.40;;;3.67;;
71490;SDS011;59307;50.060;9.150;2022-12-24T15:54:13;21.10;;;3.50;;
71490;SDS011;59307;50.060;9.150;2022-12-24T15:56:43;22.90;;;3.60;;